Time;durP1;ratioP1;P1;durP2;ratioP2;P2;SDS_P1;SDS_P2;PMS_P1;PMS_P2;Temp;Humidity;BMP_temperature;BMP_pressure;BME280_temperature;BME280_humidity;BME280_pressure;Samples;Min_cycle;Max_cycle;Signal;HPM_P1;HPM_P2
2023/07/28 00:01:38;;;;;;;1999.90;999.90;;;18.00;99.90;;;;;;4806092;29;20058;-85
2023/07/28 00:04:07;;;;;;;1999.90;999.90;;;18.00;99.90;;;;;;4823327;29;20086;-85
2023/07/28 00:06:33;;;;;;;1999.90;999.90;;;18.00;99.90;;;;;;4808442;29;20063;-84
2023/07/28 00:08:59;;;;;;;1999.90;999.90;;;18.00;99.90;;;;;;4808959;29;20074;-83
2023/07/28 00:11:24;;;;;;;1999.90;999.90;;;18.00;99.90;;;;;;4807537;29;20501;-84
2023/07/28 00:13:50;;;;;;;1999.90;999.90;;;18.00;99.90;;;;;;4823150;29;20065;-84
2023/07/28 00:16:16;;;;;;;1999.90;999.90;;;18.00;99.90;;;;;;4823838;29;20063;-84
2023/07/28 00:18:41;;;;;;;1999.90;999.90;;;18.00;99.90;;;;;;4808073;29;20054;-85
2023/07/28 00:21:07;;;;;;;1999.90;999.90;;;18.00;99.90;;;;;;4823259;29;20150;-84
2023/07/28 00:23:33;;;;;;;1999.90;999.90;;;18.00;99.90;;;;;;4807987;29;20104;-86
2023/07/28 00:25:59;;;;;;;1999.90;999.90;;;18.00;99.90;;;;;;4808001;29;20069;-84
2023/07/28 00:28:24;;;;;;;1999.90;999.90;;;18.00;99.90;;;;;;4807911;29;20127;-83
2023/07/28 00:30:50;;;;;;;1999.90;999.90;;;18.00;99.90;;;;;;4822926;29;20468;-85
2023/07/28 00:33:17;;;;;;;1999.90;999.90;;;18.00;99.90;;;;;;4807787;29;20090;-81
2023/07/28 00:35:43;;;;;;;1999.90;999.90;;;18.00;99.90;;;;;;4809430;29;20385;-85
2023/07/28 00:38:09;;;;;;;1999.90;999.90;;;18.00;99.90;;;;;;4792778;29;20062;-86
2023/07/28 00:40:36;;;;;;;1999.90;999.90;;;18.00;99.90;;;;;;4809427;29;20073;-85
2023/07/28 00:43:02;;;;;;;1999.90;999.90;;;18.00;99.90;;;;;;4808401;29;20058;-86
2023/07/28 00:45:28;;;;;;;1999.90;999.90;;;18.00;99.90;;;;;;4822649;29;20054;-82
2023/07/28 00:47:57;;;;;;;1999.90;999.90;;;18.00;99.90;;;;;;4808576;29;20484;-84
2023/07/28 00:50:23;;;;;;;1999.90;999.90;;;18.00;99.90;;;;;;4792522;29;20101;-86
2023/07/28 00:52:49;;;;;;;1999.90;999.90;;;18.00;99.90;;;;;;4792810;29;20082;-86
2023/07/28 00:55:15;;;;;;;1999.90;999.90;;;18.00;99.90;;;;;;4807414;29;20508;-84
2023/07/28 00:57:41;;;;;;;1999.90;999.90;;;18.00;99.90;;;;;;4808335;29;20484;-86
2023/07/28 01:00:07;;;;;;;1999.90;999.90;;;18.00;99.90;;;;;;4822607;29;20065;-86
2023/07/28 01:02:33;;;;;;;1999.90;999.90;;;18.00;99.90;;;;;;4808758;29;20477;-86
2023/07/28 01:04:59;;;;;;;1999.90;999.90;;;18.00;99.90;;;;;;4792389;29;20058;-86
2023/07/28 01:07:29;;;;;;;1999.90;999.90;;;18.00;99.90;;;;;;4792439;29;20055;-86
2023/07/28 01:10:06;;;;;;;1999.90;999.90;;;18.00;99.90;;;;;;4821807;29;20063;-86
2023/07/28 01:12:32;;;;;;;1999.90;999.90;;;18.00;99.90;;;;;;4807281;29;20043;-86
2023/07/28 01:14:58;;;;;;;1999.90;999.90;;;18.00;99.90;;;;;;4806830;29;20058;-86
2023/07/28 01:17:24;;;;;;;1999.90;999.90;;;18.30;99.90;;;;;;4792121;29;20373;-86
2023/07/28 01:19:50;;;;;;;1999.90;999.90;;;18.00;99.90;;;;;;4807020;29;20050;-87
2023/07/28 01:22:47;;;;;;;1999.90;999.90;;;18.00;99.90;;;;;;4807220;29;20059;-86
2023/07/28 01:25:32;;;;;;;1999.90;999.90;;;18.00;99.90;;;;;;4806956;29;20400;-86
2023/07/28 01:28:00;;;;;;;1999.90;999.90;;;18.00;99.90;;;;;;4807212;29;20059;-86
2023/07/28 01:30:27;;;;;;;1999.90;999.90;;;18.00;99.90;;;;;;4807726;29;20046;-85
2023/07/28 01:32:57;;;;;;;1999.90;999.90;;;18.00;99.90;;;;;;4806822;29;20058;-86
2023/07/28 01:35:25;;;;;;;1999.90;999.90;;;18.00;99.90;;;;;;4806692;29;20054;-86
2023/07/28 01:37:50;;;;;;;1999.90;999.90;;;18.00;99.90;;;;;;4806710;29;20050;-86
2023/07/28 01:40:20;;;;;;;1999.90;999.90;;;18.00;99.90;;;;;;4822639;29;20061;-85
2023/07/28 01:42:46;;;;;;;1999.90;999.90;;;18.00;99.90;;;;;;4807340;29;20138;-85
2023/07/28 01:45:12;;;;;;;1999.90;999.90;;;18.00;99.90;;;;;;4806881;29;20058;-85
2023/07/28 01:47:37;;;;;;;1999.90;999.90;;;18.00;99.90;;;;;;4821735;29;20400;-86
2023/07/28 01:50:04;;;;;;;1999.90;999.90;;;18.00;99.90;;;;;;4791213;29;20051;-84
2023/07/28 01:52:29;;;;;;;1999.90;999.90;;;18.00;99.90;;;;;;4806111;29;20055;-85
2023/07/28 01:54:55;;;;;;;1999.90;999.90;;;18.00;99.90;;;;;;4822058;29;20050;-81
2023/07/28 01:57:21;;;;;;;1999.90;999.90;;;18.00;99.90;;;;;;4822331;29;20086;-86
2023/07/28 01:59:46;;;;;;;1999.90;999.90;;;18.00;99.90;;;;;;4806310;29;20065;-84
2023/07/28 02:02:12;;;;;;;1999.90;999.90;;;18.00;99.90;;;;;;4791227;29;20047;-84
2023/07/28 02:04:38;;;;;;;1999.90;999.90;;;18.00;99.90;;;;;;4821450;29;20157;-84
2023/07/28 02:07:04;;;;;;;1999.90;999.90;;;18.00;99.90;;;;;;4806353;29;20050;-85
2023/07/28 02:09:29;;;;;;;1999.90;999.90;;;18.00;99.90;;;;;;4791404;29;20503;-86
2023/07/28 02:11:55;;;;;;;1999.90;999.90;;;18.00;99.90;;;;;;4822240;29;20066;-84
2023/07/28 02:14:21;;;;;;;1999.90;999.90;;;18.00;99.90;;;;;;4821392;29;20092;-86
2023/07/28 02:16:46;;;;;;;1999.90;999.90;;;18.00;99.90;;;;;;4820969;29;20047;-83
2023/07/28 02:19:12;;;;;;;1999.90;999.90;;;18.00;99.90;;;;;;4806731;29;20103;-87
2023/07/28 02:21:38;;;;;;;1999.90;999.90;;;18.00;99.90;;;;;;4790982;29;20051;-86
2023/07/28 02:24:04;;;;;;;1999.90;999.90;;;18.00;99.90;;;;;;4821055;29;20134;-85
2023/07/28 02:26:30;;;;;;;1999.90;999.90;;;18.00;99.90;;;;;;4790376;29;20058;-85
2023/07/28 02:28:55;;;;;;;1999.90;999.90;;;18.00;99.90;;;;;;4791250;29;20055;-85
2023/07/28 02:31:21;;;;;;;1999.90;999.90;;;18.00;99.90;;;;;;4791266;29;20400;-83
2023/07/28 02:33:47;;;;;;;1999.90;999.90;;;18.00;99.90;;;;;;4821116;29;20100;-84
2023/07/28 02:36:12;;;;;;;1999.90;999.90;;;18.00;99.90;;;;;;4791316;29;20050;-82
2023/07/28 02:38:38;;;;;;;1999.90;999.90;;;18.00;99.90;;;;;;4790851;29;20065;-83
2023/07/28 02:41:04;;;;;;;1999.90;999.90;;;18.00;99.90;;;;;;4821045;29;20058;-83
2023/07/28 02:43:30;;;;;;;1999.90;999.90;;;18.00;99.90;;;;;;4790501;29;20134;-85
2023/07/28 02:45:57;;;;;;;1999.90;999.90;;;18.00;99.90;;;;;;4791439;29;20062;-84
2023/07/28 02:48:23;;;;;;;1999.90;999.90;;;18.00;99.90;;;;;;4790576;29;20137;-85
2023/07/28 02:50:51;;;;;;;1999.90;999.90;;;18.00;99.90;;;;;;4805670;29;20138;-85
2023/07/28 02:53:17;;;;;;;1999.90;999.90;;;18.00;99.90;;;;;;4805572;29;20150;-85
2023/07/28 02:55:43;;;;;;;1999.90;999.90;;;18.00;99.90;;;;;;4805236;29;20054;-86
2023/07/28 02:58:10;;;;;;;1999.90;999.90;;;18.00;99.90;;;;;;4805551;29;20043;-85
2023/07/28 03:00:43;;;;;;;1999.90;999.90;;;18.00;99.90;;;;;;4805617;29;20047;-86
2023/07/28 03:03:10;;;;;;;1999.90;999.90;;;18.00;99.90;;;;;;4805823;29;20401;-84
2023/07/28 03:05:40;;;;;;;1999.90;999.90;;;17.90;99.90;;;;;;4805671;29;20054;-86
2023/07/28 03:08:06;;;;;;;1999.90;999.90;;;18.00;99.90;;;;;;4820907;29;20051;-86
2023/07/28 03:10:32;;;;;;;1999.90;999.90;;;18.00;99.90;;;;;;4805109;29;20059;-85
2023/07/28 03:12:58;;;;;;;1999.90;999.90;;;18.00;99.90;;;;;;4805420;29;20062;-85
2023/07/28 03:15:24;;;;;;;1999.90;999.90;;;18.00;99.90;;;;;;4821295;29;20126;-86
2023/07/28 03:17:50;;;;;;;1999.90;999.90;;;18.00;99.90;;;;;;4821081;29;20141;-86
2023/07/28 03:20:16;;;;;;;1999.90;999.90;;;18.00;99.90;;;;;;4805642;29;20051;-86
2023/07/28 03:22:42;;;;;;;1999.90;999.90;;;17.90;99.90;;;;;;4790439;29;20053;-86
2023/07/28 03:25:09;;;;;;;1999.90;999.90;;;18.00;99.90;;;;;;4805283;29;20062;-86
2023/07/28 03:27:34;;;;;;;1999.90;999.90;;;17.90;99.90;;;;;;4805334;29;20047;-87
2023/07/28 03:30:00;;;;;;;1999.90;999.90;;;18.00;99.90;;;;;;4820510;29;20054;-86
2023/07/28 03:32:26;;;;;;;1999.90;999.90;;;18.00;99.90;;;;;;4805288;29;20051;-86
2023/07/28 03:34:52;;;;;;;1999.90;999.90;;;18.00;99.90;;;;;;4805757;29;20058;-86
2023/07/28 03:37:18;;;;;;;1999.90;999.90;;;18.00;99.90;;;;;;4822389;29;20404;-86
2023/07/28 03:39:43;;;;;;;1999.90;999.90;;;18.00;99.90;;;;;;4808727;29;20133;-87
2023/07/28 03:42:09;;;;;;;1999.90;999.90;;;18.00;99.90;;;;;;4793663;29;20078;-87
2023/07/28 03:44:37;;;;;;;1999.90;999.90;;;18.00;99.90;;;;;;4808614;29;20051;-87
2023/07/28 03:47:04;;;;;;;1999.90;999.90;;;18.00;99.90;;;;;;4808581;29;20055;-87
2023/07/28 03:49:29;;;;;;;1999.90;999.90;;;18.00;99.90;;;;;;4808276;29;20138;-86
2023/07/28 03:51:55;;;;;;;1999.90;999.90;;;18.00;99.90;;;;;;4794300;29;20150;-87
2023/07/28 03:54:21;;;;;;;1999.90;999.90;;;18.00;99.90;;;;;;4823477;29;20054;-86
2023/07/28 03:56:47;;;;;;;1999.90;999.90;;;18.00;99.90;;;;;;4778209;29;20138;-87
2023/07/28 03:59:12;;;;;;;1999.90;999.90;;;18.00;99.90;;;;;;4794086;29;20105;-87
2023/07/28 04:01:38;;;;;;;1999.90;999.90;;;18.00;99.90;;;;;;4809319;29;20377;-87
2023/07/28 04:04:04;;;;;;;1999.90;999.90;;;18.00;99.90;;;;;;4793271;29;20050;-86
2023/07/28 04:06:46;;;;;;;1999.90;999.90;;;18.00;99.90;;;;;;4793387;29;20055;-87
2023/07/28 04:09:14;;;;;;;1999.90;999.90;;;18.00;99.90;;;;;;4807603;29;20054;-85
2023/07/28 04:11:40;;;;;;;1999.90;999.90;;;18.00;99.90;;;;;;4808185;29;20118;-87
2023/07/28 04:14:06;;;;;;;1999.90;999.90;;;18.00;99.90;;;;;;4822951;29;20552;-87
2023/07/28 04:16:32;;;;;;;1999.90;999.90;;;18.00;99.90;;;;;;4808159;29;20074;-87
2023/07/28 04:18:58;;;;;;;1999.90;999.90;;;18.00;99.90;;;;;;4808001;29;20500;-86
2023/07/28 04:21:24;;;;;;;1999.90;999.90;;;18.00;99.90;;;;;;4823042;29;20046;-85
2023/07/28 04:23:49;;;;;;;1999.90;999.90;;;18.00;99.90;;;;;;4808230;29;20083;-86
2023/07/28 04:26:17;;;;;;;1999.90;999.90;;;18.00;99.90;;;;;;4808059;29;20400;-86
2023/07/28 04:28:42;;;;;;;1999.90;999.90;;;18.00;99.90;;;;;;4792797;29;20050;-86
2023/07/28 04:31:08;;;;;;;1999.90;999.90;;;18.00;99.90;;;;;;4793120;29;20062;-86
2023/07/28 04:33:34;;;;;;;1999.90;999.90;;;18.00;99.90;;;;;;4792840;29;20047;-87
2023/07/28 04:36:02;;;;;;;1999.90;999.90;;;18.00;99.90;;;;;;4808537;29;20061;-87
2023/07/28 04:38:28;;;;;;;1999.90;999.90;;;18.00;99.90;;;;;;4792427;29;20096;-86
2023/07/28 04:40:54;;;;;;;1999.90;999.90;;;18.00;99.90;;;;;;4807692;29;20059;-86
2023/07/28 04:43:20;;;;;;;1999.90;999.90;;;18.00;99.90;;;;;;4807647;29;20054;-86
2023/07/28 04:45:45;;;;;;;1999.90;999.90;;;18.00;99.90;;;;;;4808306;29;20054;-86
2023/07/28 04:48:11;;;;;;;1999.90;999.90;;;18.00;99.90;;;;;;4791664;29;20054;-86
2023/07/28 04:50:37;;;;;;;1999.90;999.90;;;18.00;99.90;;;;;;4822244;29;20059;-86
2023/07/28 04:53:03;;;;;;;1999.90;999.90;;;18.00;99.90;;;;;;4822500;29;20062;-86
2023/07/28 04:55:28;;;;;;;1999.90;999.90;;;18.00;99.90;;;;;;4792490;29;20086;-86
2023/07/28 04:57:55;;;;;;;1999.90;999.90;;;18.10;99.90;;;;;;4822733;29;20054;-87
2023/07/28 05:00:21;;;;;;;1999.90;999.90;;;18.00;99.90;;;;;;4808091;29;20059;-85
2023/07/28 05:02:48;;;;;;;1999.90;999.90;;;18.10;99.90;;;;;;4807270;29;20489;-85
2023/07/28 05:05:13;;;;;;;1999.90;999.90;;;18.00;99.90;;;;;;4806971;29;20066;-85
2023/07/28 05:07:39;;;;;;;1999.90;999.90;;;18.10;99.90;;;;;;4792960;29;20051;-84
2023/07/28 05:10:05;;;;;;;1999.90;999.90;;;17.70;99.90;;;;;;4806413;29;20081;-85
2023/07/28 05:12:31;;;;;;;1999.90;999.90;;;18.10;99.90;;;;;;4807194;29;20377;-85
2023/07/28 05:14:56;;;;;;;1999.90;999.90;;;18.10;99.90;;;;;;4822191;29;20062;-85
2023/07/28 05:17:22;;;;;;;1999.90;999.90;;;18.10;99.90;;;;;;4792134;29;20043;-84
2023/07/28 05:19:49;;;;;;;1999.90;999.90;;;18.10;99.90;;;;;;4792276;29;20492;-86
2023/07/28 05:22:15;;;;;;;1999.90;999.90;;;18.10;99.90;;;;;;4807217;29;20059;-87
2023/07/28 05:24:41;;;;;;;1999.90;999.90;;;18.10;99.90;;;;;;4806896;29;20121;-84
2023/07/28 05:27:07;;;;;;;1999.90;999.90;;;18.10;99.90;;;;;;4791925;29;20142;-86
2023/07/28 05:29:32;;;;;;;1999.90;999.90;;;18.10;99.90;;;;;;4822630;29;20065;-86
2023/07/28 05:31:59;;;;;;;1999.90;999.90;;;18.10;99.90;;;;;;4807064;29;20090;-85
2023/07/28 05:34:25;;;;;;;1999.90;999.90;;;18.10;99.90;;;;;;4791813;29;20050;-85
2023/07/28 05:36:50;;;;;;;1999.90;999.90;;;18.10;99.90;;;;;;4807409;29;20051;-86
2023/07/28 05:39:16;;;;;;;1999.90;999.90;;;18.10;99.90;;;;;;4808172;29;20047;-86
2023/07/28 05:41:42;;;;;;;1999.90;999.90;;;18.10;99.90;;;;;;4791892;29;20437;-87
2023/07/28 05:44:07;;;;;;;1999.90;999.90;;;18.10;99.90;;;;;;4791622;29;20051;-86
2023/07/28 05:46:33;;;;;;;1999.90;999.90;;;18.10;99.90;;;;;;4821664;29;20043;-83
2023/07/28 05:48:59;;;;;;;1999.90;999.90;;;18.10;99.90;;;;;;4791431;29;20141;-84
2023/07/28 05:51:25;;;;;;;1999.90;999.90;;;18.10;99.90;;;;;;4791872;29;20047;-85
2023/07/28 05:53:50;;;;;;;1999.90;999.90;;;18.20;99.90;;;;;;4822204;29;20058;-85
2023/07/28 05:56:17;;;;;;;1999.90;999.90;;;18.20;99.90;;;;;;4791471;29;20108;-84
2023/07/28 05:58:44;;;;;;;1999.90;999.90;;;18.20;99.90;;;;;;4791295;29;20051;-84
2023/07/28 06:01:10;;;;;;;1999.90;999.90;;;18.20;99.90;;;;;;4806987;29;20059;-83
2023/07/28 06:03:35;;;;;;;1999.90;999.90;;;18.30;99.90;;;;;;4776460;29;20511;-83
2023/07/28 06:06:10;;;;;;;1999.90;999.90;;;18.20;99.90;;;;;;4790953;29;20046;-81
2023/07/28 06:08:37;;;;;;;1999.90;999.90;;;18.20;99.90;;;;;;4791927;29;20065;-81
2023/07/28 06:11:05;;;;;;;1999.90;999.90;;;18.30;99.90;;;;;;4805504;29;20519;-82
2023/07/28 06:13:31;;;;;;;1999.90;999.90;;;18.30;99.90;;;;;;4806103;29;20058;-83
2023/07/28 06:15:58;;;;;;;1999.90;999.90;;;18.20;99.90;;;;;;4791138;29;20090;-83
2023/07/28 06:18:24;;;;;;;1999.90;999.90;;;18.30;99.90;;;;;;4806827;29;20082;-83
2023/07/28 06:20:49;;;;;;;1999.90;999.90;;;18.30;99.90;;;;;;4806021;29;20058;-84
2023/07/28 06:23:15;;;;;;;1999.90;999.90;;;18.30;99.90;;;;;;4805633;29;20078;-83
2023/07/28 06:25:45;;;;;;;1999.90;999.90;;;18.30;99.90;;;;;;4790961;29;20055;-83
2023/07/28 06:28:12;;;;;;;1999.90;999.90;;;18.30;99.90;;;;;;4791112;29;20123;-83
2023/07/28 06:30:38;;;;;;;1999.90;999.90;;;18.40;99.90;;;;;;4791323;29;20120;-83
2023/07/28 06:33:08;;;;;;;1999.90;999.90;;;18.40;99.90;;;;;;4805806;29;20055;-82
2023/07/28 06:35:34;;;;;;;1999.90;999.90;;;18.40;99.90;;;;;;4805481;29;20051;-84
2023/07/28 06:38:00;;;;;;;1999.90;999.90;;;18.40;99.90;;;;;;4805646;29;20104;-83
2023/07/28 06:40:26;;;;;;;1999.90;999.90;;;18.40;99.90;;;;;;4806688;29;20471;-83
2023/07/28 06:42:52;;;;;;;1999.90;999.90;;;18.40;99.90;;;;;;4821763;29;20058;-83
2023/07/28 06:45:18;;;;;;;1999.90;999.90;;;18.50;99.90;;;;;;4805571;29;20088;-85
2023/07/28 06:47:43;;;;;;;1999.90;999.90;;;18.50;99.90;;;;;;4806588;29;20054;-85
2023/07/28 06:50:11;;;;;;;1999.90;999.90;;;18.50;99.90;;;;;;4821175;29;20103;-84
2023/07/28 06:52:37;;;;;;;1999.90;999.90;;;18.60;99.90;;;;;;4807347;29;20116;-83
2023/07/28 06:55:03;;;;;;;1999.90;999.90;;;18.50;99.90;;;;;;4805542;29;20057;-83
2023/07/28 06:57:30;;;;;;;1999.90;999.90;;;18.60;99.90;;;;;;4806444;29;20058;-82
2023/07/28 06:59:56;;;;;;;1999.90;999.90;;;18.60;99.90;;;;;;4805338;29;20043;-83
2023/07/28 07:02:22;;;;;;;1999.90;999.90;;;18.60;99.90;;;;;;4805771;29;20403;-83
2023/07/28 07:04:48;;;;;;;1999.90;999.90;;;18.60;99.90;;;;;;4806376;29;20058;-82
2023/07/28 07:07:13;;;;;;;1999.90;999.90;;;18.60;99.90;;;;;;4807045;29;20050;-83
2023/07/28 07:09:40;;;;;;;1999.90;999.90;;;18.60;99.90;;;;;;4806911;29;20484;-84
2023/07/28 07:12:09;;;;;;;1999.90;999.90;;;18.70;99.90;;;;;;4806799;29;20094;-83
2023/07/28 07:14:35;;;;;;;1999.90;999.90;;;18.70;99.90;;;;;;4809118;29;20061;-82
2023/07/28 07:17:01;;;;;;;1999.90;999.90;;;18.70;99.90;;;;;;4810317;29;20051;-83
2023/07/28 07:19:30;;;;;;;1999.90;999.90;;;18.70;99.90;;;;;;4810060;29;20553;-81
2023/07/28 07:21:56;;;;;;;1999.90;999.90;;;18.80;99.90;;;;;;4809976;29;20093;-83
2023/07/28 07:24:21;;;;;;;1999.90;999.90;;;18.80;99.90;;;;;;4808730;29;20091;-81
2023/07/28 07:26:47;;;;;;;1999.90;999.90;;;18.80;99.90;;;;;;4824329;29;20062;-80
2023/07/28 07:29:13;;;;;;;1999.90;999.90;;;18.90;99.90;;;;;;4824037;29;20051;-82
2023/07/28 07:31:39;;;;;;;1999.90;999.90;;;18.90;99.90;;;;;;4809939;29;20057;-83
2023/07/28 07:34:05;;;;;;;1999.90;999.90;;;18.90;99.90;;;;;;4808952;29;20063;-82
2023/07/28 07:36:31;;;;;;;1999.90;999.90;;;18.90;99.90;;;;;;4808813;29;20086;-80
2023/07/28 07:38:57;;;;;;;1999.90;999.90;;;18.90;99.90;;;;;;4808845;29;20054;-82
2023/07/28 07:41:23;;;;;;;1999.90;999.90;;;19.00;99.90;;;;;;4808832;29;20047;-83
2023/07/28 07:43:52;;;;;;;1999.90;999.90;;;19.00;99.90;;;;;;4809754;29;20061;-81
2023/07/28 07:46:19;;;;;;;1999.90;999.90;;;19.10;99.90;;;;;;4809533;29;20207;-79
2023/07/28 07:48:45;;;;;;;1999.90;999.90;;;19.10;99.90;;;;;;4810309;29;20082;-82
2023/07/28 07:51:11;;;;;;;1999.90;999.90;;;19.10;99.90;;;;;;4794453;29;20051;-82
2023/07/28 07:53:37;;;;;;;1999.90;999.90;;;19.20;99.90;;;;;;4810361;29;20086;-82
2023/07/28 07:56:07;;;;;;;1999.90;999.90;;;19.20;99.90;;;;;;4808864;29;20504;-83
2023/07/28 07:58:33;;;;;;;1999.90;999.90;;;19.30;99.90;;;;;;4809472;29;20051;-80
2023/07/28 08:00:59;;;;;;;1999.90;999.90;;;19.40;99.90;;;;;;4823242;29;20111;-81
2023/07/28 08:03:25;;;;;;;1999.90;999.90;;;19.40;99.90;;;;;;4808800;29;20050;-83
2023/07/28 08:05:51;;;;;;;1999.90;999.90;;;19.40;99.90;;;;;;4808526;29;20058;-82
2023/07/28 08:08:19;;;;;;;1999.90;999.90;;;19.40;99.90;;;;;;4808866;29;20054;-76
2023/07/28 08:10:46;;;;;;;1999.90;999.90;;;19.50;99.90;;;;;;4809033;29;20059;-82
2023/07/28 08:13:11;;;;;;;1999.90;999.90;;;19.60;99.90;;;;;;4808749;29;20054;-83
2023/07/28 08:15:37;;;;;;;1999.90;999.90;;;19.60;99.90;;;;;;4792528;29;20081;-81
2023/07/28 08:18:03;;;;;;;1999.90;999.90;;;19.60;99.90;;;;;;4793378;29;20107;-80
2023/07/28 08:20:29;;;;;;;1999.90;999.90;;;19.60;99.90;;;;;;4792478;29;20047;-81
2023/07/28 08:22:54;;;;;;;1999.90;999.90;;;19.60;99.90;;;;;;4821423;29;20087;-81
2023/07/28 08:25:22;;;;;;;1999.90;999.90;;;19.70;99.90;;;;;;4807383;29;20403;-77
2023/07/28 08:27:48;;;;;;;1999.90;999.90;;;19.70;99.90;;;;;;4777909;29;20058;-83
2023/07/28 08:30:15;;;;;;;1999.90;999.90;;;19.70;99.90;;;;;;4822245;29;20050;-82
2023/07/28 08:32:41;;;;;;;1999.90;999.90;;;19.70;99.90;;;;;;4792664;29;20121;-81
2023/07/28 08:35:08;;;;;;;1999.90;999.90;;;19.70;99.90;;;;;;4807451;29;20055;-83
2023/07/28 08:37:34;;;;;;;1999.90;999.90;;;19.60;99.90;;;;;;4807994;29;20090;-83
2023/07/28 08:39:59;;;;;;;1999.90;999.90;;;19.70;99.90;;;;;;4822340;29;20086;-79
2023/07/28 08:42:25;;;;;;;1999.90;999.90;;;19.60;99.90;;;;;;4822118;29;20062;-81
2023/07/28 08:44:52;;;;;;;1999.90;999.90;;;19.60;99.90;;;;;;4808694;29;20107;-80
2023/07/28 08:47:18;;;;;;;1999.90;999.90;;;19.60;99.90;;;;;;4808136;29;20058;-81
2023/07/28 08:49:44;;;;;;;1999.90;999.90;;;19.60;99.90;;;;;;4806790;29;20403;-81
2023/07/28 08:52:10;;;;;;;1999.90;999.90;;;19.60;99.90;;;;;;4791870;29;20133;-80
2023/07/28 08:54:36;;;;;;;1999.90;999.90;;;19.60;99.90;;;;;;4807946;29;20051;-82
2023/07/28 08:57:02;;;;;;;1999.90;999.90;;;19.60;99.90;;;;;;4807095;29;20116;-84
2023/07/28 08:59:29;;;;;;;1999.90;999.90;;;19.70;99.90;;;;;;4808412;29;20107;-79
2023/07/28 09:02:00;;;;;;;1999.90;999.90;;;19.70;99.90;;;;;;4807929;29;20055;-80
2023/07/28 09:04:26;;;;;;;1999.90;999.90;;;19.70;99.90;;;;;;4807283;29;20054;-83
2023/07/28 09:06:52;;;;;;;1999.90;999.90;;;19.70;99.90;;;;;;4808251;29;20054;-82
2023/07/28 09:09:21;;;;;;;1999.90;999.90;;;20.00;99.90;;;;;;4806603;29;20059;-83
2023/07/28 09:11:54;;;;;;;1999.90;999.90;;;19.80;99.90;;;;;;4806125;29;20504;-81
2023/07/28 09:14:23;;;;;;;1999.90;999.90;;;19.80;99.90;;;;;;4807932;29;20066;-79
2023/07/28 09:16:49;;;;;;;1999.90;999.90;;;19.90;99.90;;;;;;4807414;29;20446;-82
2023/07/28 09:19:15;;;;;;;1999.90;999.90;;;19.90;99.90;;;;;;4806732;29;20137;-83
2023/07/28 09:21:47;;;;;;;1999.90;999.90;;;20.00;99.90;;;;;;4821257;29;20154;-81
2023/07/28 09:24:13;;;;;;;1999.90;999.90;;;20.00;99.90;;;;;;4807452;29;20496;-77
2023/07/28 09:26:41;;;;;;;1999.90;999.90;;;20.10;99.90;;;;;;4806520;29;20054;-80
2023/07/28 09:29:20;;;;;;;1999.90;999.90;;;20.20;99.90;;;;;;4807616;29;20059;-78
2023/07/28 09:31:47;;;;;;;1999.90;999.90;;;20.20;99.90;;;;;;4806243;29;20093;-80
2023/07/28 09:34:24;;;;;;;1999.90;999.90;;;20.20;99.90;;;;;;4807183;29;20115;-79
2023/07/28 09:36:49;;;;;;;1999.90;999.90;;;20.30;99.90;;;;;;4806569;29;20043;-79
2023/07/28 09:39:16;;;;;;;1999.90;999.90;;;20.30;99.90;;;;;;4806255;29;20111;-79
2023/07/28 09:41:44;;;;;;;1999.90;999.90;;;20.40;99.90;;;;;;4807256;29;20058;-80
2023/07/28 09:44:10;;;;;;;1999.90;999.90;;;20.40;99.90;;;;;;4806043;29;20489;-80
2023/07/28 09:46:49;;;;;;;1999.90;999.90;;;20.50;99.90;;;;;;4806043;29;20058;-80
2023/07/28 09:49:19;;;;;;;1999.90;999.90;;;20.50;99.90;;;;;;4805865;29;20104;-79
2023/07/28 09:51:48;;;;;;;1999.90;999.90;;;20.60;99.90;;;;;;4807272;29;20415;-79
2023/07/28 09:54:29;;;;;;;1999.90;999.90;;;20.60;99.90;;;;;;4806540;29;20495;-78
2023/07/28 09:56:59;;;;;;;1999.90;999.90;;;20.60;99.90;;;;;;4807670;29;20222;-79
2023/07/28 09:59:52;;;;;;;1999.90;999.90;;;20.60;99.90;;;;;;4805935;29;20404;-76
2023/07/28 10:02:18;;;;;;;1999.90;999.90;;;20.70;99.90;;;;;;4804907;29;20588;-78
2023/07/28 10:04:44;;;;;;;1999.90;999.90;;;20.70;99.90;;;;;;4821121;29;20051;-77
2023/07/28 10:07:10;;;;;;;1999.90;999.90;;;20.80;99.90;;;;;;4806506;29;20055;-81
2023/07/28 10:09:37;;;;;;;1999.90;999.90;;;20.70;99.90;;;;;;4775757;29;20047;-78
2023/07/28 10:12:03;;;;;;;1999.90;999.90;;;20.70;99.90;;;;;;4804835;29;20063;-79
2023/07/28 10:14:33;;;;;;;1999.90;999.90;;;20.70;99.90;;;;;;4806688;29;20059;-77
2023/07/28 10:16:59;;;;;;;1999.90;999.90;;;20.70;99.90;;;;;;4790927;29;20055;-78
2023/07/28 10:19:26;;;;;;;1999.90;999.90;;;20.70;99.90;;;;;;4805669;29;20066;-76
2023/07/28 10:22:00;;;;;;;1999.90;999.90;;;20.80;99.90;;;;;;4806563;29;20456;-80
2023/07/28 10:24:52;;;;;;;1999.90;999.90;;;20.90;99.90;;;;;;4807134;29;20047;-79
2023/07/28 10:27:31;;;;;;;1999.90;999.90;;;21.00;99.90;;;;;;4820637;29;20057;-78
2023/07/28 10:30:03;;;;;;;1999.90;999.90;;;21.00;99.90;;;;;;4805524;29;20054;-79
2023/07/28 10:32:29;;;;;;;1999.90;999.90;;;21.10;99.90;;;;;;4790490;29;20055;-77
2023/07/28 10:35:13;;;;;;;1999.90;999.90;;;21.10;99.90;;;;;;4805198;29;20051;-79
2023/07/28 10:37:43;;;;;;;1999.90;999.90;;;21.10;99.90;;;;;;4820367;29;20481;-78
2023/07/28 10:40:28;;;;;;;1999.90;999.90;;;21.10;99.90;;;;;;4805550;29;20070;-78
2023/07/28 10:42:54;;;;;;;1999.90;999.90;;;21.10;99.90;;;;;;4805936;29;20492;-79
2023/07/28 10:45:22;;;;;;;1999.90;999.90;;;21.10;99.90;;;;;;4804813;29;20087;-79
2023/07/28 10:47:48;;;;;;;1999.90;999.90;;;21.10;99.90;;;;;;4806099;29;20059;-79
2023/07/28 10:50:15;;;;;;;1999.90;999.90;;;21.20;99.90;;;;;;4805045;29;20469;-79
2023/07/28 10:52:45;;;;;;;1999.90;999.90;;;21.20;99.90;;;;;;4806156;29;20498;-79
2023/07/28 10:58:17;;;;;;;1999.90;999.90;;;21.20;99.90;;;;;;4799111;29;20073;-78
2023/07/28 11:00:46;;;;;;;1999.90;999.90;;;21.30;99.90;;;;;;4804818;29;20058;-76
2023/07/28 11:09:28;;;;;;;1999.90;999.90;;;21.70;99.90;;;;;;5107650;27;20342;-77
2023/07/28 11:11:55;;;;;;;1999.90;999.90;;;21.80;99.90;;;;;;5069378;28;20052;-78
2023/07/28 11:14:22;;;;;;;1999.90;999.90;;;21.80;99.90;;;;;;5087436;28;20135;-75
2023/07/28 11:16:59;;;;;;;1999.90;999.90;;;21.80;99.90;;;;;;5072834;28;20044;-76
2023/07/28 11:19:31;;;;;;;1999.90;999.90;;;21.90;99.90;;;;;;5066375;28;20056;-78
2023/07/28 11:22:00;;;;;;;1999.90;999.90;;;22.00;99.90;;;;;;5069706;28;20067;-77
2023/07/28 11:24:36;;;;;;;1999.90;999.90;;;22.70;99.90;;;;;;5054205;28;20056;-77
2023/07/28 11:27:02;;;;;;;1999.90;999.90;;;22.00;99.90;;;;;;5053963;28;20048;-77
2023/07/28 11:29:32;;;;;;;1999.90;999.90;;;22.00;99.90;;;;;;5087282;28;20098;-77
2023/07/28 11:32:18;;;;;;;;;;;;;;;;;;;;;
2023/07/28 11:34:51;;;;;;;1999.90;999.90;;;22.10;99.90;;;;;;5087107;28;20415;-81
2023/07/28 11:37:18;;;;;;;1999.90;999.90;;;22.00;99.90;;;;;;5050612;28;20075;-76
2023/07/28 11:39:45;;;;;;;1999.90;999.90;;;22.00;99.90;;;;;;5087092;28;20044;-77
2023/07/28 11:42:18;;;;;;;1999.90;999.90;;;22.00;99.90;;;;;;5052438;28;20051;-76
2023/07/28 11:44:53;;;;;;;1999.90;999.90;;;22.10;99.90;;;;;;5050484;28;20060;-76
2023/07/28 11:47:28;;;;;;;1999.90;999.90;;;22.10;99.90;;;;;;5069710;28;20109;-77
2023/07/28 11:49:54;;;;;;;1999.90;999.90;;;22.10;99.90;;;;;;5086752;28;20048;-80
2023/07/28 11:52:21;;;;;;;1999.90;999.90;;;22.20;99.90;;;;;;5068413;28;20060;-76
2023/07/28 11:54:47;;;;;;;1999.90;999.90;;;22.30;99.90;;;;;;5051331;28;20415;-75
2023/07/28 11:57:13;;;;;;;1999.90;999.90;;;22.40;99.90;;;;;;5085719;28;20062;-78
2023/07/28 11:59:39;;;;;;;1999.90;999.90;;;22.50;99.90;;;;;;5086051;28;20135;-77
2023/07/28 12:02:07;;;;;;;1999.90;999.90;;;22.60;99.90;;;;;;5067994;28;20056;-77
2023/07/28 12:04:37;;;;;;;1999.90;999.90;;;22.60;99.90;;;;;;5068256;28;20060;-75
2023/07/28 12:07:06;;;;;;;1999.90;999.90;;;22.60;99.90;;;;;;5084799;28;20448;-76
2023/07/28 12:09:52;;;;;;;1999.90;999.90;;;22.60;99.90;;;;;;5067898;28;20416;-76
2023/07/28 12:12:23;;;;;;;1999.90;999.90;;;22.70;99.90;;;;;;5064503;28;20507;-77